createdAt,value
2019-04-19T00:02:33.269Z,4.10
2019-04-19T00:05:03.647Z,4.37
2019-04-19T00:07:33.816Z,4.63
2019-04-19T00:10:16.870Z,4.43
2019-04-19T00:12:42.455Z,3.70
2019-04-19T00:15:05.787Z,4.10
2019-04-19T00:17:37.002Z,3.80
2019-04-19T00:20:32.697Z,3.63
2019-04-19T00:22:52.352Z,4.30
2019-04-19T00:25:08.230Z,4.43
2019-04-19T00:27:46.018Z,4.00
2019-04-19T00:30:23.769Z,4.00
2019-04-19T00:32:56.071Z,4.60
2019-04-19T00:35:11.709Z,4.00
2019-04-19T00:37:40.790Z,4.43
2019-04-19T00:40:48.405Z,4.63
2019-04-19T00:43:40.939Z,4.63
2019-04-19T00:46:18.139Z,4.33
2019-04-19T00:48:46.117Z,4.33
2019-04-19T00:51:15.238Z,4.27
2019-04-19T00:53:41.845Z,4.83
2019-04-19T00:56:11.454Z,4.60
2019-04-19T00:58:37.217Z,4.83
2019-04-19T01:01:12.156Z,4.73
2019-04-19T01:03:42.057Z,4.80
2019-04-19T01:06:11.583Z,4.27
2019-04-19T01:08:48.696Z,4.60
2019-04-19T01:11:24.885Z,4.57
2019-04-19T01:13:56.211Z,4.43
2019-04-19T01:16:23.583Z,4.97
2019-04-19T01:18:49.315Z,4.07
2019-04-19T01:21:11.557Z,4.23
2019-04-19T01:23:46.916Z,4.70
2019-04-19T01:26:14.765Z,4.80
2019-04-19T01:28:45.332Z,4.70
2019-04-19T01:31:17.703Z,4.92
2019-04-19T01:33:45.991Z,4.28
2019-04-19T01:36:19.014Z,4.45
2019-04-19T01:38:53.493Z,4.40
2019-04-19T01:41:35.823Z,4.53
2019-04-19T01:44:15.872Z,4.60
2019-04-19T01:47:00.715Z,4.40
2019-04-19T01:50:01.119Z,4.70
2019-04-19T01:52:44.971Z,4.80
2019-04-19T01:54:58.058Z,5.70
2019-04-19T01:57:18.622Z,5.40
2019-04-19T01:59:52.758Z,5.28
2019-04-19T02:02:21.288Z,5.23
2019-04-19T02:04:52.101Z,5.00
2019-04-19T02:07:25.055Z,5.17
2019-04-19T02:10:02.625Z,5.47
2019-04-19T02:12:34.676Z,4.65
2019-04-19T02:14:59.270Z,4.92
2019-04-19T02:17:23.181Z,5.30
2019-04-19T02:20:00.332Z,5.93
2019-04-19T02:22:29.764Z,5.03
2019-04-19T02:24:57.359Z,5.75
2019-04-19T02:27:32.732Z,5.60
2019-04-19T02:30:02.038Z,5.80
2019-04-19T02:32:43.261Z,4.83
2019-04-19T02:35:15.406Z,5.50
2019-04-19T02:37:57.133Z,5.10
2019-04-19T02:40:44.992Z,5.95
2019-04-19T02:43:17.077Z,4.67
2019-04-19T02:45:26.145Z,4.87
2019-04-19T02:47:56.043Z,5.10
2019-04-19T02:50:56.241Z,5.55
2019-04-19T02:53:01.771Z,5.13
2019-04-19T02:55:30.894Z,5.13
2019-04-19T02:58:26.370Z,5.67
2019-04-19T03:01:41.860Z,4.62
2019-04-19T03:03:37.909Z,4.83
2019-04-19T03:06:09.118Z,5.13
2019-04-19T03:08:25.010Z,6.20
2019-04-19T03:11:06.306Z,4.80
2019-04-19T03:13:41.248Z,4.60
2019-04-19T03:16:11.804Z,5.08
2019-04-19T03:18:42.366Z,4.60
2019-04-19T03:21:18.926Z,5.53
2019-04-19T03:23:39.663Z,5.20
2019-04-19T03:26:16.563Z,4.83
2019-04-19T03:28:38.549Z,4.22
2019-04-19T03:33:58.951Z,5.13
2019-04-19T03:36:20.202Z,4.70
2019-04-19T03:38:51.585Z,5.07
2019-04-19T03:41:40.753Z,4.80
2019-04-19T03:44:10.442Z,5.28
2019-04-19T03:46:52.821Z,5.17
2019-04-19T03:49:27.585Z,4.90
2019-04-19T03:51:57.385Z,5.17
2019-04-19T03:54:19.180Z,4.60
2019-04-19T03:56:44.805Z,4.80
2019-04-19T03:59:00.721Z,5.40
2019-04-19T04:01:39.719Z,5.40
2019-04-19T04:04:08.863Z,4.90
2019-04-19T04:06:36.619Z,4.50
2019-04-19T04:09:09.133Z,4.90
2019-04-19T04:12:09.158Z,5.40
2019-04-19T04:14:56.831Z,5.53
2019-04-19T04:17:16.346Z,5.40
2019-04-19T04:19:46.289Z,5.40
2019-04-19T04:22:22.699Z,5.37
2019-04-19T04:24:58.367Z,4.43
2019-04-19T04:27:32.906Z,5.40
2019-04-19T04:30:00.251Z,5.03
2019-04-19T04:32:40.556Z,5.20
2019-04-19T04:35:10.470Z,5.20
2019-04-19T04:37:38.369Z,5.35
2019-04-19T04:39:55.594Z,5.85
2019-04-19T04:42:32.078Z,5.67
2019-04-19T04:48:08.761Z,5.00
2019-04-19T04:51:05.799Z,5.00
2019-04-19T04:53:27.854Z,5.60
2019-04-19T04:56:10.456Z,4.93
2019-04-19T04:58:42.397Z,5.13
2019-04-19T05:01:15.276Z,5.77
2019-04-19T05:04:00.735Z,6.37
2019-04-19T05:06:26.660Z,4.60
2019-04-19T05:08:58.569Z,5.13
2019-04-19T05:11:30.592Z,5.40
2019-04-19T05:14:09.629Z,4.93
2019-04-19T05:16:46.674Z,5.27
2019-04-19T05:19:06.540Z,5.53
2019-04-19T05:21:32.819Z,5.00
2019-04-19T05:24:08.808Z,5.33
2019-04-19T05:26:45.058Z,5.13
2019-04-19T05:29:03.586Z,5.33
2019-04-19T05:31:34.938Z,5.60
2019-04-19T05:34:15.895Z,5.40
2019-04-19T05:36:49.781Z,5.77
2019-04-19T05:39:26.354Z,5.67
2019-04-19T05:42:06.250Z,5.83
2019-04-19T05:45:16.970Z,4.87
2019-04-19T05:47:26.130Z,5.00
2019-04-19T05:49:59.932Z,5.50
2019-04-19T05:52:34.376Z,5.50
2019-04-19T05:54:47.172Z,5.33
2019-04-19T05:57:38.481Z,4.93
2019-04-19T05:59:54.683Z,5.23
2019-04-19T06:02:26.295Z,5.40
2019-04-19T06:05:16.088Z,5.70
2019-04-19T06:07:34.752Z,5.57
2019-04-19T06:09:51.927Z,5.70
2019-04-19T06:12:25.386Z,4.97
2019-04-19T06:15:14.791Z,5.30
2019-04-19T06:18:06.984Z,5.47
2019-04-19T06:20:33.970Z,5.07
2019-04-19T06:23:13.333Z,5.10
2019-04-19T06:25:52.794Z,5.13
2019-04-19T06:28:20.810Z,5.10
2019-04-19T06:30:46.997Z,5.73
2019-04-19T06:33:17.211Z,5.47
2019-04-19T06:35:39.580Z,5.60
2019-04-19T06:37:59.270Z,5.47
2019-04-19T06:40:32.789Z,5.50
2019-04-19T06:43:06.653Z,5.90
2019-04-19T06:45:45.120Z,6.20
2019-04-19T06:48:09.206Z,5.40
2019-04-19T06:50:38.311Z,5.60
2019-04-19T06:53:03.930Z,5.87
2019-04-19T06:55:37.596Z,5.70
2019-04-19T06:58:10.637Z,6.60
2019-04-19T07:00:48.919Z,6.70
2019-04-19T07:03:07.668Z,5.70
2019-04-19T07:05:48.835Z,5.37
2019-04-19T07:08:49.958Z,5.73
2019-04-19T07:11:00.638Z,5.50
2019-04-19T07:13:21.408Z,5.80
2019-04-19T07:16:14.847Z,6.20
2019-04-19T07:18:29.971Z,5.60
2019-04-19T07:21:10.484Z,6.30
2019-04-19T07:23:36.818Z,5.50
2019-04-19T07:26:11.577Z,6.30
2019-04-19T07:28:23.203Z,6.20
2019-04-19T07:30:53.232Z,5.67
2019-04-19T07:33:31.606Z,6.20
2019-04-19T07:36:11.818Z,6.03
2019-04-19T07:38:41.625Z,6.27
2019-04-19T07:41:10.112Z,6.33
2019-04-19T07:43:56.160Z,5.80
2019-04-19T07:46:31.380Z,5.70
2019-04-19T07:48:49.425Z,6.80
2019-04-19T07:51:24.115Z,5.60
2019-04-19T07:53:52.733Z,5.40
2019-04-19T07:56:31.709Z,5.83
2019-04-19T07:59:12.237Z,6.00
2019-04-19T08:01:54.255Z,6.07
2019-04-19T08:06:53.825Z,6.07
2019-04-19T08:09:20.193Z,7.17
2019-04-19T08:12:03.312Z,6.00
2019-04-19T08:14:22.800Z,6.30
2019-04-19T08:29:16.069Z,6.70
2019-04-19T08:31:35.701Z,6.70
2019-04-19T08:34:09.354Z,6.80
2019-04-19T08:36:43.580Z,6.30
2019-04-19T08:39:25.340Z,5.70
2019-04-19T08:42:04.694Z,7.07
2019-04-19T08:44:21.885Z,6.97
2019-04-19T08:47:01.980Z,7.17
2019-04-19T08:49:40.521Z,7.43
2019-04-19T08:52:25.130Z,7.07
2019-04-19T08:55:09.063Z,7.07
2019-04-19T08:57:24.221Z,7.40
2019-04-19T09:00:20.141Z,7.13
2019-04-19T09:02:39.256Z,6.60
2019-04-19T09:05:08.997Z,6.90
2019-04-19T09:07:47.407Z,6.73
2019-04-19T09:10:27.689Z,8.33
2019-04-19T09:12:39.809Z,6.60
2019-04-19T09:15:14.081Z,7.47
2019-04-19T09:23:00.445Z,7.10
2019-04-19T09:25:36.109Z,7.40
2019-04-19T09:28:15.979Z,7.80
2019-04-19T09:30:40.903Z,7.17
2019-04-19T09:33:02.177Z,6.87
2019-04-19T09:35:30.937Z,7.63
2019-04-19T09:38:10.492Z,7.13
2019-04-19T09:40:41.477Z,8.30
2019-04-19T09:43:21.413Z,6.70
2019-04-19T09:45:36.131Z,7.10
2019-04-19T09:48:21.102Z,7.00
2019-04-19T09:50:54.964Z,7.80
2019-04-19T09:53:38.224Z,7.00
2019-04-19T09:56:03.520Z,7.63
2019-04-19T09:58:31.928Z,7.63
2019-04-19T10:00:45.391Z,8.30
2019-04-19T10:03:24.567Z,8.50
2019-04-19T10:05:46.534Z,7.93
2019-04-19T10:08:16.102Z,8.03
2019-04-19T10:10:46.654Z,7.40
2019-04-19T10:13:16.143Z,9.27
2019-04-19T10:16:00.704Z,8.33
2019-04-19T10:18:44.121Z,7.13
2019-04-19T10:29:40.872Z,7.33
2019-04-19T10:32:26.658Z,7.37
2019-04-19T10:34:56.831Z,8.27
2019-04-19T10:37:26.335Z,7.63
2019-04-19T10:39:55.664Z,8.30
2019-04-19T10:42:25.201Z,7.67
2019-04-19T10:44:56.266Z,8.70
2019-04-19T10:47:29.217Z,7.77
2019-04-19T10:50:12.854Z,7.00
2019-04-19T10:52:31.625Z,9.20
2019-04-19T10:55:02.347Z,8.53
2019-04-19T10:57:31.617Z,7.90
2019-04-19T11:00:03.190Z,7.60
2019-04-19T11:02:35.107Z,9.13
2019-04-19T11:05:08.835Z,8.47
2019-04-19T11:07:39.984Z,8.17
2019-04-19T11:10:09.859Z,8.30
2019-04-19T11:12:39.074Z,8.10
2019-04-19T11:15:10.582Z,7.67
2019-04-19T11:17:41.376Z,7.40
2019-04-19T11:20:22.792Z,8.37
2019-04-19T11:22:41.850Z,8.57
2019-04-19T11:25:12.145Z,8.40
2019-04-19T11:27:41.339Z,6.90
2019-04-19T11:30:21.173Z,7.50
2019-04-19T11:32:50.524Z,8.43
2019-04-19T11:35:21.441Z,8.40
2019-04-19T11:37:51.028Z,7.67
2019-04-19T11:40:21.454Z,8.60
2019-04-19T11:42:51.202Z,6.80
2019-04-19T11:45:21.812Z,7.03
2019-04-19T11:47:51.312Z,8.50
2019-04-19T11:50:20.447Z,6.93
2019-04-19T11:53:10.326Z,7.60
2019-04-19T11:55:42.432Z,6.67
2019-04-19T11:58:12.499Z,6.80
2019-04-19T12:00:50.277Z,6.67
2019-04-19T12:03:24.360Z,6.87
2019-04-19T12:05:54.003Z,6.43
2019-04-19T12:08:23.110Z,6.50
2019-04-19T12:10:52.536Z,6.53
2019-04-19T12:13:22.066Z,6.73
2019-04-19T12:15:52.710Z,6.90
2019-04-19T12:18:22.158Z,6.87
2019-04-19T12:20:51.341Z,5.87
2019-04-19T12:23:23.250Z,6.53
2019-04-19T12:25:53.513Z,6.97
2019-04-19T12:28:23.774Z,6.40
2019-04-19T12:30:55.584Z,6.03
2019-04-19T12:33:23.763Z,6.40
2019-04-19T12:35:53.076Z,6.80
2019-04-19T12:38:28.290Z,6.57
2019-04-19T12:41:05.851Z,6.80
2019-04-19T12:43:36.165Z,6.30
2019-04-19T12:46:05.427Z,6.43
2019-04-19T12:48:35.364Z,7.20
2019-04-19T12:51:05.889Z,5.97
2019-04-19T12:53:35.129Z,5.93
2019-04-19T12:56:04.268Z,5.60
2019-04-19T12:58:33.408Z,6.23
2019-04-19T13:01:21.916Z,6.20
2019-04-19T13:04:06.450Z,6.87
2019-04-19T13:06:36.271Z,6.17
2019-04-19T13:09:08.987Z,6.17
2019-04-19T13:11:38.870Z,6.90
2019-04-19T13:14:08.182Z,6.67
2019-04-19T13:16:37.258Z,6.00
2019-04-19T13:19:06.295Z,5.77
2019-04-19T13:21:36.449Z,5.80
2019-04-19T13:24:06.691Z,5.97
2019-04-19T13:26:35.842Z,5.90
2019-04-19T13:29:05.244Z,5.70
2019-04-19T13:31:34.662Z,5.80
2019-04-19T13:34:04.868Z,5.87
2019-04-19T13:36:51.424Z,6.33
2019-04-19T13:39:36.423Z,5.40
2019-04-19T13:42:09.239Z,5.30
2019-04-19T13:44:38.808Z,5.20
2019-04-19T13:47:08.992Z,5.37
2019-04-19T13:49:37.911Z,5.00
2019-04-19T13:52:08.297Z,5.63
2019-04-19T13:54:38.827Z,5.33
2019-04-19T13:57:10.083Z,4.60
2019-04-19T13:59:48.170Z,5.27
2019-04-19T14:02:12.633Z,5.40
2019-04-19T14:04:42.030Z,5.30
2019-04-19T14:07:11.150Z,4.60
2019-04-19T14:09:41.051Z,5.40
2019-04-19T14:12:11.255Z,4.90
2019-04-19T14:14:41.126Z,5.10
2019-04-19T14:17:11.697Z,5.23
2019-04-19T14:19:42.574Z,5.30
2019-04-19T14:22:13.360Z,5.40
2019-04-19T14:24:43.115Z,4.73
2019-04-19T14:27:13.228Z,4.47
2019-04-19T14:29:43.486Z,4.43
2019-04-19T14:32:13.670Z,4.27
2019-04-19T14:34:43.727Z,5.40
2019-04-19T14:37:14.471Z,4.73
2019-04-19T14:39:44.886Z,4.80
2019-04-19T14:42:15.066Z,4.40
2019-04-19T14:44:45.289Z,4.83
2019-04-19T14:47:14.893Z,4.67
2019-04-19T14:49:44.954Z,5.30
2019-04-19T14:52:14.133Z,5.30
2019-04-19T14:54:43.248Z,5.07
2019-04-19T14:57:13.371Z,5.30
2019-04-19T14:59:42.947Z,5.40
2019-04-19T15:02:45.725Z,4.03
2019-04-19T15:05:21.384Z,5.03
2019-04-19T15:07:52.633Z,3.90
2019-04-19T15:10:21.903Z,5.40
2019-04-19T15:12:52.369Z,4.33
2019-04-19T15:15:22.339Z,4.57
2019-04-19T15:17:51.867Z,4.43
2019-04-19T15:20:22.289Z,4.13
2019-04-19T15:22:52.595Z,4.07
2019-04-19T15:25:23.525Z,3.87
2019-04-19T15:27:52.889Z,4.27
2019-04-19T15:30:23.459Z,4.43
2019-04-19T15:32:52.641Z,4.27
2019-04-19T15:35:23.591Z,5.30
2019-04-19T15:37:53.875Z,5.07
2019-04-19T15:40:23.686Z,4.90
2019-04-19T15:42:53.161Z,4.77
2019-04-19T15:45:25.317Z,5.30
2019-04-19T15:47:55.021Z,4.07
2019-04-19T15:50:27.570Z,4.23
2019-04-19T15:52:57.839Z,5.20
2019-04-19T15:55:28.184Z,4.80
2019-04-19T15:57:57.525Z,4.17
2019-04-19T16:00:56.804Z,4.03
2019-04-19T16:03:43.815Z,3.80
2019-04-19T16:06:36.232Z,3.73
2019-04-19T16:09:28.957Z,4.03
2019-04-19T16:12:26.193Z,3.70
2019-04-19T16:14:56.257Z,4.10
2019-04-19T16:17:27.317Z,4.47
2019-04-19T16:19:57.548Z,4.13
2019-04-19T16:22:26.686Z,3.87
2019-04-19T16:24:56.999Z,4.00
2019-04-19T16:27:27.646Z,4.17
2019-04-19T16:29:59.579Z,4.00
2019-04-19T16:32:27.450Z,3.83
2019-04-19T16:34:57.143Z,4.30
2019-04-19T16:37:26.559Z,3.90
2019-04-19T16:39:55.955Z,3.63
2019-04-19T16:42:25.152Z,3.83
2019-04-19T16:44:54.203Z,4.20
2019-04-19T16:47:23.581Z,3.90
2019-04-19T16:49:52.684Z,3.80
2019-04-19T16:52:22.677Z,3.97
2019-04-19T16:54:52.347Z,4.80
2019-04-19T16:57:26.741Z,5.03
2019-04-19T16:59:52.378Z,4.47
2019-04-19T17:02:22.708Z,4.50
2019-04-19T17:04:52.698Z,3.90
2019-04-19T17:07:22.661Z,4.13
2019-04-19T17:09:51.840Z,4.90
2019-04-19T17:12:21.013Z,4.37
2019-04-19T17:14:53.217Z,4.57
2019-04-19T17:17:38.592Z,3.77
2019-04-19T17:20:27.820Z,4.40
2019-04-19T17:22:58.895Z,4.40
2019-04-19T17:25:28.693Z,3.90
2019-04-19T17:27:58.814Z,3.80
2019-04-19T17:30:36.150Z,3.73
2019-04-19T17:33:14.582Z,3.70
2019-04-19T17:35:45.976Z,4.23
2019-04-19T17:38:29.932Z,3.90
2019-04-19T17:40:50.402Z,4.07
2019-04-19T17:43:21.395Z,3.93
2019-04-19T17:45:50.618Z,4.43
2019-04-19T17:48:20.729Z,3.73
2019-04-19T17:50:50.027Z,3.87
2019-04-19T17:53:20.432Z,3.40
2019-04-19T17:55:51.852Z,3.90
2019-04-19T17:58:21.321Z,3.73
2019-04-19T18:00:51.222Z,3.80
2019-04-19T18:03:22.818Z,3.60
2019-04-19T18:05:52.052Z,4.03
2019-04-19T18:08:26.140Z,3.60
2019-04-19T18:10:55.361Z,3.17
2019-04-19T18:13:23.784Z,4.13
2019-04-19T18:15:54.276Z,3.50
2019-04-19T18:18:23.463Z,3.27
2019-04-19T18:20:56.044Z,3.00
2019-04-19T18:23:35.549Z,2.90
2019-04-19T18:25:57.056Z,3.00
2019-04-19T18:28:32.550Z,3.50
2019-04-19T18:31:00.118Z,3.70
2019-04-19T18:33:33.650Z,3.30
2019-04-19T18:36:06.842Z,3.30
2019-04-19T18:38:33.449Z,3.90
2019-04-19T18:41:03.020Z,3.30
2019-04-19T18:43:40.578Z,3.60
2019-04-19T18:46:02.849Z,2.80
2019-04-19T18:48:33.604Z,3.30
2019-04-19T18:51:02.511Z,3.20
2019-04-19T18:53:40.196Z,3.30
2019-04-19T18:56:14.041Z,3.60
2019-04-19T18:58:37.794Z,3.53
2019-04-19T19:01:16.885Z,3.50
2019-04-19T19:03:45.173Z,3.80
2019-04-19T19:06:12.892Z,4.23
2019-04-19T19:08:50.299Z,3.77
2019-04-19T19:11:18.712Z,3.40
2019-04-19T19:13:45.668Z,3.90
2019-04-19T19:16:20.697Z,3.30
2019-04-19T19:18:50.567Z,4.63
2019-04-19T19:21:16.846Z,3.50
2019-04-19T19:24:15.559Z,3.50
2019-04-19T19:26:26.384Z,3.47
2019-04-19T19:28:49.765Z,3.40
2019-04-19T19:31:30.853Z,3.23
2019-04-19T19:34:02.085Z,3.73
2019-04-19T19:36:50.437Z,3.47
2019-04-19T19:39:35.179Z,3.30
2019-04-19T19:44:54.623Z,3.63
2019-04-19T19:48:26.626Z,3.40
2019-04-19T19:50:42.115Z,3.50
2019-04-19T19:53:09.847Z,3.97
2019-04-19T19:55:38.974Z,3.93
2019-04-19T19:58:00.719Z,3.53
2019-04-19T20:00:47.777Z,4.23
2019-04-19T20:03:13.650Z,3.80
2019-04-19T20:05:41.891Z,3.60
2019-04-19T20:08:13.637Z,3.90
2019-04-19T20:10:43.972Z,3.43
2019-04-19T20:13:16.165Z,3.80
2019-04-19T20:15:47.544Z,3.17
2019-04-19T20:18:24.073Z,3.47
2019-04-19T20:20:54.403Z,3.23
2019-04-19T20:23:30.194Z,3.57
2019-04-19T20:26:08.566Z,3.57
2019-04-19T20:28:32.765Z,3.40
2019-04-19T20:31:02.476Z,3.43
2019-04-19T20:33:45.936Z,3.57
2019-04-19T20:36:12.704Z,4.63
2019-04-19T20:38:54.264Z,4.93
2019-04-19T20:41:20.696Z,4.73
2019-04-19T20:44:08.200Z,4.17
2019-04-19T20:46:28.686Z,4.07
2019-04-19T20:49:02.802Z,3.63
2019-04-19T20:51:48.254Z,3.27
2019-04-19T20:54:38.140Z,3.47
2019-04-19T20:57:24.032Z,3.57
2019-04-19T21:00:33.312Z,3.80
2019-04-19T21:03:01.827Z,3.00
2019-04-19T21:05:37.869Z,4.10
2019-04-19T21:08:09.244Z,3.63
2019-04-19T21:10:37.077Z,3.67
2019-04-19T21:13:12.836Z,3.97
2019-04-19T21:15:54.237Z,2.63
2019-04-19T21:18:26.198Z,3.67
2019-04-19T21:21:14.903Z,3.67
2019-04-19T21:23:59.928Z,3.20
2019-04-19T21:26:28.067Z,3.70
2019-04-19T21:28:59.297Z,3.43
2019-04-19T21:31:37.912Z,3.40
2019-04-19T21:34:06.924Z,3.40
2019-04-19T21:36:38.856Z,3.53
2019-04-19T21:39:11.459Z,3.60
2019-04-19T21:41:39.906Z,3.33
2019-04-19T21:44:22.582Z,3.23
2019-04-19T21:46:54.154Z,2.97
2019-04-19T21:49:22.992Z,3.40
2019-04-19T21:51:53.719Z,3.10
2019-04-19T21:54:24.264Z,3.27
2019-04-19T21:56:54.803Z,3.30
2019-04-19T21:59:30.267Z,3.93
2019-04-19T22:01:59.483Z,3.40
2019-04-19T22:04:34.306Z,3.20
2019-04-19T22:07:08.988Z,3.10
2019-04-19T22:09:41.446Z,3.40
2019-04-19T22:12:12.326Z,3.60
2019-04-19T22:14:44.530Z,3.43
2019-04-19T22:17:21.729Z,3.10
2019-04-19T22:19:57.512Z,2.60
2019-04-19T22:22:31.725Z,3.23
2019-04-19T22:25:05.314Z,3.00
2019-04-19T22:27:51.582Z,3.13
2019-04-19T22:30:21.289Z,3.30
2019-04-19T22:32:55.461Z,3.30
2019-04-19T22:35:31.927Z,3.07
2019-04-19T22:38:12.308Z,2.87
2019-04-19T22:40:47.522Z,2.90
2019-04-19T22:43:20.934Z,3.60
2019-04-19T22:45:58.810Z,3.27
2019-04-19T22:48:23.706Z,3.20
2019-04-19T22:51:03.401Z,3.20
2019-04-19T22:53:34.259Z,3.30
2019-04-19T22:56:14.900Z,3.33
2019-04-19T22:58:35.186Z,2.70
2019-04-19T23:01:29.733Z,2.77
2019-04-19T23:04:08.905Z,2.77
2019-04-19T23:06:36.597Z,3.40
2019-04-19T23:09:10.670Z,3.03
2019-04-19T23:11:45.717Z,3.17
2019-04-19T23:14:52.541Z,3.27
2019-04-19T23:17:37.639Z,2.53
2019-04-19T23:20:05.984Z,3.00
2019-04-19T23:22:41.034Z,3.10
2019-04-19T23:25:11.269Z,3.23
2019-04-19T23:27:48.709Z,3.07
2019-04-19T23:30:17.914Z,2.80
2019-04-19T23:32:48.160Z,2.70
2019-04-19T23:35:21.081Z,2.80
2019-04-19T23:37:49.454Z,3.70
2019-04-19T23:40:23.730Z,2.63
2019-04-19T23:42:52.074Z,2.90
2019-04-19T23:45:32.975Z,2.77
2019-04-19T23:48:04.655Z,2.80
2019-04-19T23:50:41.276Z,2.83
2019-04-19T23:53:14.385Z,2.57
2019-04-19T23:55:44.595Z,2.93
2019-04-19T23:58:22.862Z,2.90
